Time;durP1;ratioP1;P1;durP2;ratioP2;P2;SDS_P1;SDS_P2;PMS_P1;PMS_P2;Temp;Humidity;BMP_temperature;BMP_pressure;BME280_temperature;BME280_humidity;BME280_pressure;Samples;Min_cycle;Max_cycle;Signal;HPM_P1;HPM_P2
2022/05/01 00:02:06;;;;;;;;;17.33;15.00;;;;;;;;5084219;27;46468;-74
2022/05/01 00:04:32;;;;;;;;;17.67;15.33;;;;;;;;5077639;27;45426;-74
2022/05/01 00:06:57;;;;;;;;;16.00;13.67;;;;;;;;5090675;27;45640;-74
2022/05/01 00:09:22;;;;;;;;;15.00;15.00;;;;;;;;5080845;27;45324;-74
2022/05/01 00:11:47;;;;;;;;;16.67;14.33;;;;;;;;5074295;28;46338;-75
2022/05/01 00:14:13;;;;;;;;;14.00;11.33;;;;;;;;5081568;27;45502;-76
2022/05/01 00:16:38;;;;;;;;;21.00;19.00;;;;;;;;5079079;27;45213;-75
2022/05/01 00:19:04;;;;;;;;;22.67;21.67;;;;;;;;5077568;27;45426;-75
2022/05/01 00:21:31;;;;;;;;;22.00;17.00;;;;;;;;5091592;27;45579;-76
2022/05/01 00:23:57;;;;;;;;;29.33;26.33;;;;;;;;5098232;27;45485;-76
2022/05/01 00:26:22;;;;;;;;;28.67;24.33;;;;;;;;5090262;27;45290;-75
2022/05/01 00:28:47;;;;;;;;;28.00;25.00;;;;;;;;5076465;27;45549;-75
2022/05/01 00:31:16;;;;;;;;;26.67;24.33;;;;;;;;5092360;27;46268;-74
2022/05/01 00:36:28;;;;;;;;;28.00;26.00;;;;;;;;5077561;28;45861;-74
2022/05/01 00:39:01;;;;;;;;;21.67;21.67;;;;;;;;5077598;27;45244;-74
2022/05/01 00:41:27;;;;;;;;;24.33;21.67;;;;;;;;5076945;27;46301;-75
2022/05/01 00:43:57;;;;;;;;;29.67;24.33;;;;;;;;5077119;27;45410;-74
2022/05/01 00:46:23;;;;;;;;;27.67;24.33;;;;;;;;5077485;27;45443;-75
2022/05/01 00:48:49;;;;;;;;;32.00;30.00;;;;;;;;5077432;27;45449;-75
2022/05/01 00:51:14;;;;;;;;;27.00;26.00;;;;;;;;5076767;27;45540;-74
2022/05/01 00:53:39;;;;;;;;;57.50;48.00;;;;;;;;5076851;27;45327;-74
2022/05/01 00:56:06;;;;;;;;;32.00;24.67;;;;;;;;5077318;27;45322;-75
2022/05/01 00:58:31;;;;;;;;;28.33;24.00;;;;;;;;5077689;27;45430;-74
2022/05/01 01:00:59;;;;;;;;;34.33;31.00;;;;;;;;5076700;27;46096;-74
2022/05/01 01:03:24;;;;;;;;;28.33;23.67;;;;;;;;5076956;27;45421;-74
2022/05/01 01:05:49;;;;;;;;;23.67;23.67;;;;;;;;5086281;27;45408;-74
2022/05/01 01:08:15;;;;;;;;;25.33;22.67;;;;;;;;5097953;27;45284;-73
2022/05/01 01:10:40;;;;;;;;;23.00;23.00;;;;;;;;5095754;27;46554;-73
2022/05/01 01:13:05;;;;;;;;;27.67;26.33;;;;;;;;5075813;28;45376;-73
2022/05/01 01:15:31;;;;;;;;;34.33;25.67;;;;;;;;5077290;27;45250;-73
2022/05/01 01:17:57;;;;;;;;;36.67;29.33;;;;;;;;5076947;27;45429;-74
2022/05/01 01:20:29;;;;;;;;;32.67;26.00;;;;;;;;5076583;27;46704;-74
2022/05/01 01:22:55;;;;;;;;;33.33;28.00;;;;;;;;5076830;27;45285;-73
2022/05/01 01:25:22;;;;;;;;;32.67;30.33;;;;;;;;5076659;27;45457;-73
2022/05/01 01:27:48;;;;;;;;;29.67;25.33;;;;;;;;5077109;27;45334;-73
2022/05/01 01:32:58;;;;;;;;;31.33;27.33;;;;;;;;5056092;28;45434;-73
2022/05/01 01:35:24;;;;;;;;;44.33;36.00;;;;;;;;5057173;28;45409;-72
2022/05/01 01:37:53;;;;;;;;;47.00;37.33;;;;;;;;5076951;27;45449;-73
2022/05/01 01:40:20;;;;;;;;;40.67;35.00;;;;;;;;5078837;27;46419;-73
2022/05/01 01:42:46;;;;;;;;;34.67;29.67;;;;;;;;5080222;27;45453;-73
2022/05/01 01:45:12;;;;;;;;;29.67;27.00;;;;;;;;5080299;27;45355;-73
2022/05/01 01:47:38;;;;;;;;;30.00;26.00;;;;;;;;5080019;27;45412;-74
2022/05/01 01:50:04;;;;;;;;;36.00;32.33;;;;;;;;5079840;27;46197;-75
2022/05/01 01:52:29;;;;;;;;;29.33;28.00;;;;;;;;5079909;27;45301;-74
2022/05/01 01:54:54;;;;;;;;;28.00;24.67;;;;;;;;5079197;27;45354;-74
2022/05/01 01:57:19;;;;;;;;;29.67;26.00;;;;;;;;5080259;27;45439;-74
2022/05/01 01:59:45;;;;;;;;;45.00;35.67;;;;;;;;5079928;27;46747;-74
2022/05/01 02:02:10;;;;;;;;;34.00;30.67;;;;;;;;5079176;28;45372;-75
2022/05/01 02:04:35;;;;;;;;;30.00;27.33;;;;;;;;5079253;27;45480;-75
2022/05/01 02:07:00;;;;;;;;;56.33;46.00;;;;;;;;5099266;27;45429;-75
2022/05/01 02:09:26;;;;;;;;;31.00;24.33;;;;;;;;5087810;27;46059;-75
2022/05/01 02:11:52;;;;;;;;;38.33;32.00;;;;;;;;5079558;27;45391;-74
2022/05/01 02:14:17;;;;;;;;;44.00;36.67;;;;;;;;5079329;27;45516;-74
2022/05/01 02:16:42;;;;;;;;;27.33;26.00;;;;;;;;5079627;28;45223;-74
2022/05/01 02:19:08;;;;;;;;;25.00;23.00;;;;;;;;5078825;28;45660;-74
2022/05/01 02:21:36;;;;;;;;;26.00;25.00;;;;;;;;5079511;28;45249;-74
2022/05/01 02:24:08;;;;;;;;;33.33;31.33;;;;;;;;5079482;27;45320;-74
2022/05/01 02:26:35;;;;;;;;;38.33;35.00;;;;;;;;5079983;27;45168;-73
2022/05/01 02:29:02;;;;;;;;;32.67;30.00;;;;;;;;5078782;27;46863;-74
2022/05/01 02:31:27;;;;;;;;;30.00;28.33;;;;;;;;5079402;28;45356;-74
2022/05/01 02:33:52;;;;;;;;;36.67;33.00;;;;;;;;5079398;27;45303;-74
2022/05/01 02:36:18;;;;;;;;;27.00;27.00;;;;;;;;5079255;27;45413;-74
2022/05/01 02:38:44;;;;;;;;;30.67;27.33;;;;;;;;5079123;27;46503;-74
2022/05/01 02:41:09;;;;;;;;;32.00;29.00;;;;;;;;5079077;27;45441;-74
2022/05/01 02:43:35;;;;;;;;;29.67;29.00;;;;;;;;5079282;27;45315;-73
2022/05/01 02:46:00;;;;;;;;;38.67;31.00;;;;;;;;5079572;27;45406;-73
2022/05/01 02:48:25;;;;;;;;;35.00;29.00;;;;;;;;5078540;27;46246;-73
2022/05/01 02:50:50;;;;;;;;;34.33;27.33;;;;;;;;5078088;27;45296;-76
2022/05/01 02:53:15;;;;;;;;;31.67;28.67;;;;;;;;5079054;27;45350;-75
2022/05/01 02:55:41;;;;;;;;;36.67;33.67;;;;;;;;5078921;27;45512;-76
2022/05/01 02:58:06;;;;;;;;;40.33;35.00;;;;;;;;5078860;28;45327;-75
2022/05/01 03:00:31;;;;;;;;;30.00;25.67;;;;;;;;5078671;27;45435;-75
2022/05/01 03:02:56;;;;;;;;;42.67;36.67;;;;;;;;5078838;27;45351;-75
2022/05/01 03:05:24;;;;;;;;;43.00;35.33;;;;;;;;5080835;27;45327;-76
2022/05/01 03:07:49;;;;;;;;;38.67;32.33;;;;;;;;5079061;27;46433;-76
2022/05/01 03:10:14;;;;;;;;;37.67;33.00;;;;;;;;5078756;27;45406;-73
2022/05/01 03:12:39;;;;;;;;;33.33;29.00;;;;;;;;5078797;27;45441;-73
2022/05/01 03:15:05;;;;;;;;;32.33;29.33;;;;;;;;5077300;27;45437;-73
2022/05/01 03:22:10;;;;;;;;;36.67;31.67;;;;;;;;5078437;27;45386;-74
2022/05/01 03:23:00;;;;;;;;;42.00;32.67;;;;;;;;5078822;28;45402;-74
2022/05/01 03:25:25;;;;;;;;;35.67;27.00;;;;;;;;5078480;27;45301;-74
2022/05/01 03:27:51;;;;;;;;;37.33;29.67;;;;;;;;5078390;27;46049;-74
2022/05/01 03:30:16;;;;;;;;;31.00;30.00;;;;;;;;5078230;27;45303;-74
2022/05/01 03:32:43;;;;;;;;;25.00;25.00;;;;;;;;5078836;27;45443;-74
2022/05/01 03:35:08;;;;;;;;;31.67;30.33;;;;;;;;5078358;27;45308;-74
2022/05/01 03:37:33;;;;;;;;;32.33;31.33;;;;;;;;5078061;28;46093;-74
2022/05/01 03:39:59;;;;;;;;;32.00;29.00;;;;;;;;5078259;27;45309;-74
2022/05/01 03:42:24;;;;;;;;;35.33;31.00;;;;;;;;5078238;27;45296;-74
2022/05/01 03:44:49;;;;;;;;;36.33;33.67;;;;;;;;5078136;27;45300;-74
2022/05/01 03:47:14;;;;;;;;;41.33;33.67;;;;;;;;5077570;27;47309;-74
2022/05/01 03:49:40;;;;;;;;;43.33;35.67;;;;;;;;5077569;27;45280;-74
2022/05/01 03:52:06;;;;;;;;;29.67;29.00;;;;;;;;5078173;27;45258;-74
2022/05/01 03:54:31;;;;;;;;;36.00;31.00;;;;;;;;5077902;27;45427;-76
2022/05/01 03:56:56;;;;;;;;;28.00;26.67;;;;;;;;5093905;27;48268;-75
2022/05/01 03:59:21;;;;;;;;;39.00;34.33;;;;;;;;5077882;27;45301;-75
2022/05/01 04:01:47;;;;;;;;;31.33;24.67;;;;;;;;5077882;27;45392;-74
2022/05/01 04:04:12;;;;;;;;;34.33;27.33;;;;;;;;5077782;27;45430;-74
2022/05/01 04:06:37;;;;;;;;;36.33;30.00;;;;;;;;5093646;27;45792;-74
2022/05/01 04:09:02;;;;;;;;;36.00;28.67;;;;;;;;5096302;27;45422;-76
2022/05/01 04:11:28;;;;;;;;;36.00;29.67;;;;;;;;5077644;27;45785;-74
2022/05/01 04:13:53;;;;;;;;;32.33;32.33;;;;;;;;5094093;27;45493;-74
2022/05/01 04:16:18;;;;;;;;;34.00;27.33;;;;;;;;5077260;27;46600;-74
2022/05/01 04:18:43;;;;;;;;;28.00;26.33;;;;;;;;5077644;27;45390;-74
2022/05/01 04:21:10;;;;;;;;;35.67;32.67;;;;;;;;5077852;27;45287;-74
2022/05/01 04:23:36;;;;;;;;;35.00;30.67;;;;;;;;5077395;27;45211;-75
2022/05/01 04:26:03;;;;;;;;;38.33;33.67;;;;;;;;5077424;27;47347;-75
2022/05/01 04:28:28;;;;;;;;;33.00;31.67;;;;;;;;5077621;27;45378;-75
2022/05/01 04:30:53;;;;;;;;;28.33;27.67;;;;;;;;5077510;27;45505;-76
2022/05/01 04:33:19;;;;;;;;;38.67;29.67;;;;;;;;5077787;27;45394;-76
2022/05/01 04:35:45;;;;;;;;;41.33;34.00;;;;;;;;5076923;27;45490;-77
2022/05/01 04:38:12;;;;;;;;;35.67;33.33;;;;;;;;5064378;27;45503;-77
2022/05/01 04:40:47;;;;;;;;;37.67;34.00;;;;;;;;5067594;27;45415;-77
2022/05/01 04:43:19;;;;;;;;;37.67;29.33;;;;;;;;5067476;28;45247;-77
2022/05/01 04:45:46;;;;;;;;;39.33;33.67;;;;;;;;5077229;27;45442;-77
2022/05/01 04:48:12;;;;;;;;;45.00;34.33;;;;;;;;5077096;27;45347;-77
2022/05/01 04:50:38;;;;;;;;;41.00;35.33;;;;;;;;5076866;27;45508;-75
2022/05/01 04:53:06;;;;;;;;;42.33;34.67;;;;;;;;5077211;27;45532;-76
2022/05/01 04:55:32;;;;;;;;;38.67;32.67;;;;;;;;5076979;27;47210;-76
2022/05/01 04:57:57;;;;;;;;;39.00;34.33;;;;;;;;5076980;28;45323;-76
2022/05/01 05:00:23;;;;;;;;;34.33;29.67;;;;;;;;5077065;27;45430;-75
2022/05/01 05:02:50;;;;;;;;;45.67;33.67;;;;;;;;5078030;27;45410;-76
2022/05/01 05:05:15;;;;;;;;;48.33;35.00;;;;;;;;5081268;27;46444;-76
2022/05/01 05:07:40;;;;;;;;;59.00;47.67;;;;;;;;5097465;27;45353;-76
2022/05/01 05:10:07;;;;;;;;;45.67;39.00;;;;;;;;5097556;27;45304;-76
2022/05/01 05:12:33;;;;;;;;;62.00;50.25;;;;;;;;5079247;27;45671;-75
2022/05/01 05:15:00;;;;;;;;;45.00;38.33;;;;;;;;5079075;27;47121;-75
2022/05/01 05:17:26;;;;;;;;;38.67;33.00;;;;;;;;5080384;27;45342;-76
2022/05/01 05:19:51;;;;;;;;;41.33;33.33;;;;;;;;5080232;27;45193;-76
2022/05/01 05:22:16;;;;;;;;;45.33;34.67;;;;;;;;5080789;27;45407;-75
2022/05/01 05:24:43;;;;;;;;;40.00;36.00;;;;;;;;5079937;27;47289;-75
2022/05/01 05:27:08;;;;;;;;;37.67;33.67;;;;;;;;5079920;27;45517;-74
2022/05/01 05:29:33;;;;;;;;;45.00;35.00;;;;;;;;5080088;27;45336;-74
2022/05/01 05:31:59;;;;;;;;;38.67;35.33;;;;;;;;5080148;27;45476;-75
2022/05/01 05:34:24;;;;;;;;;42.33;34.00;;;;;;;;5079839;27;47178;-74
2022/05/01 05:36:50;;;;;;;;;36.00;33.00;;;;;;;;5080048;27;45415;-74
2022/05/01 05:39:15;;;;;;;;;36.67;33.33;;;;;;;;5080188;27;45256;-74
2022/05/01 05:41:41;;;;;;;;;39.67;33.33;;;;;;;;5080431;27;45376;-74
2022/05/01 05:44:06;;;;;;;;;38.00;33.33;;;;;;;;5079685;27;45496;-74
2022/05/01 05:46:32;;;;;;;;;37.33;32.00;;;;;;;;5079819;27;45351;-73
2022/05/01 05:48:57;;;;;;;;;40.33;32.67;;;;;;;;5079564;27;45403;-74
2022/05/01 05:51:23;;;;;;;;;30.33;30.33;;;;;;;;5079881;27;45151;-74
2022/05/01 05:53:51;;;;;;;;;36.33;33.00;;;;;;;;5079610;27;45407;-74
2022/05/01 05:56:17;;;;;;;;;42.00;36.00;;;;;;;;5079402;27;45351;-74
2022/05/01 05:58:42;;;;;;;;;37.67;33.00;;;;;;;;5079624;27;45567;-74
2022/05/01 06:01:09;;;;;;;;;30.67;28.00;;;;;;;;5079265;27;45367;-73
2022/05/01 06:03:35;;;;;;;;;44.33;29.67;;;;;;;;5079108;27;47047;-76
2022/05/01 06:06:00;;;;;;;;;35.33;33.00;;;;;;;;5085838;27;45334;-76
2022/05/01 06:08:25;;;;;;;;;38.00;33.33;;;;;;;;5079317;27;45447;-81
2022/05/01 06:10:50;;;;;;;;;38.67;33.00;;;;;;;;5079522;27;45566;-81
2022/05/01 06:13:16;;;;;;;;;47.67;37.67;;;;;;;;5079914;27;46341;-86
2022/05/01 06:15:43;;;;;;;;;47.33;34.33;;;;;;;;5079462;27;45343;-76
2022/05/01 06:18:10;;;;;;;;;43.00;35.67;;;;;;;;5079614;27;45366;-77
2022/05/01 06:20:35;;;;;;;;;48.33;39.00;;;;;;;;5078882;27;45390;-73
2022/05/01 06:23:00;;;;;;;;;43.67;35.00;;;;;;;;5079309;27;46265;-73
2022/05/01 06:25:26;;;;;;;;;45.00;38.33;;;;;;;;5079695;28;45220;-76
2022/05/01 06:27:51;;;;;;;;;39.33;32.00;;;;;;;;5079392;27;45343;-83
2022/05/01 06:30:17;;;;;;;;;38.33;33.33;;;;;;;;5079420;27;45418;-83
2022/05/01 06:32:43;;;;;;;;;46.67;36.00;;;;;;;;5079079;28;46142;-80
2022/05/01 06:35:08;;;;;;;;;37.33;34.00;;;;;;;;5079045;28;45511;-76
2022/05/01 06:37:34;;;;;;;;;38.67;32.33;;;;;;;;5079296;27;45441;-83
2022/05/01 06:40:00;;;;;;;;;37.67;32.67;;;;;;;;5079094;27;45469;-79
2022/05/01 06:42:25;;;;;;;;;46.00;34.00;;;;;;;;5079260;27;46818;-74
2022/05/01 06:44:50;;;;;;;;;42.67;34.67;;;;;;;;5079191;27;45509;-75
2022/05/01 06:47:15;;;;;;;;;41.33;35.00;;;;;;;;5079143;27;45320;-75
2022/05/01 06:49:41;;;;;;;;;33.67;30.33;;;;;;;;5079139;27;45367;-74
2022/05/01 06:52:06;;;;;;;;;38.67;33.00;;;;;;;;5078482;27;46404;-80
2022/05/01 06:54:31;;;;;;;;;44.00;35.67;;;;;;;;5078989;27;45372;-77
2022/05/01 06:56:56;;;;;;;;;36.00;33.00;;;;;;;;5078931;27;45354;-83
2022/05/01 06:59:22;;;;;;;;;42.67;35.67;;;;;;;;5078965;27;45744;-78
2022/05/01 07:01:47;;;;;;;;;42.00;33.67;;;;;;;;5077814;27;47429;-81
2022/05/01 07:04:13;;;;;;;;;40.33;36.00;;;;;;;;5078585;27;45562;-77
2022/05/01 07:06:38;;;;;;;;;41.67;37.33;;;;;;;;5094572;27;45275;-79
2022/05/01 07:09:03;;;;;;;;;50.67;40.33;;;;;;;;5095621;27;45257;-80
2022/05/01 07:11:29;;;;;;;;;45.67;38.00;;;;;;;;5078612;28;45486;-78
2022/05/01 07:13:54;;;;;;;;;45.00;37.33;;;;;;;;5078655;28;45209;-81
2022/05/01 07:16:20;;;;;;;;;52.00;38.00;;;;;;;;5078614;27;45505;-75
2022/05/01 07:18:46;;;;;;;;;53.67;41.67;;;;;;;;5078102;27;45523;-80
2022/05/01 07:21:11;;;;;;;;;51.33;40.67;;;;;;;;5077934;28;45591;-79
2022/05/01 07:23:37;;;;;;;;;53.00;42.00;;;;;;;;5078104;27;45171;-79
2022/05/01 07:26:02;;;;;;;;;49.33;39.67;;;;;;;;5078724;28;45660;-73
2022/05/01 07:28:27;;;;;;;;;50.33;41.00;;;;;;;;5078057;27;45375;-74
2022/05/01 07:30:52;;;;;;;;;46.00;37.00;;;;;;;;5078332;27;45747;-75
2022/05/01 07:33:18;;;;;;;;;46.00;36.33;;;;;;;;5078054;27;45368;-78
2022/05/01 07:35:43;;;;;;;;;48.33;38.33;;;;;;;;5078181;27;45718;-77
2022/05/01 07:38:08;;;;;;;;;47.67;39.67;;;;;;;;5077635;27;45298;-81
2022/05/01 07:40:33;;;;;;;;;47.00;36.00;;;;;;;;5077647;27;46357;-77
2022/05/01 07:42:59;;;;;;;;;45.67;37.00;;;;;;;;5077653;27;45360;-78
2022/05/01 07:45:24;;;;;;;;;41.00;36.33;;;;;;;;5077479;27;45423;-79
2022/05/01 07:47:49;;;;;;;;;45.00;36.67;;;;;;;;5078008;27;45353;-78
2022/05/01 07:50:14;;;;;;;;;47.00;37.00;;;;;;;;5074620;27;45582;-74
2022/05/01 07:52:40;;;;;;;;;45.00;36.67;;;;;;;;5077500;28;45410;-78
2022/05/01 07:55:06;;;;;;;;;39.33;34.00;;;;;;;;5078314;27;45371;-76
2022/05/01 07:57:31;;;;;;;;;45.33;37.33;;;;;;;;5077849;27;45370;-77
2022/05/01 07:59:57;;;;;;;;;41.00;33.67;;;;;;;;5077506;27;46725;-75
2022/05/01 08:02:22;;;;;;;;;42.00;35.00;;;;;;;;5077593;28;45371;-82
2022/05/01 08:04:48;;;;;;;;;39.00;32.00;;;;;;;;5077677;27;45445;-79
2022/05/01 08:07:14;;;;;;;;;44.67;36.00;;;;;;;;5077950;27;45736;-78
2022/05/01 08:09:39;;;;;;;;;35.33;30.33;;;;;;;;5092646;27;46105;-80
2022/05/01 08:12:05;;;;;;;;;45.33;34.67;;;;;;;;5085619;27;45342;-76
2022/05/01 08:14:33;;;;;;;;;42.00;34.67;;;;;;;;5077249;27;45380;-76
2022/05/01 08:16:58;;;;;;;;;44.00;36.00;;;;;;;;5077818;27;45423;-73
2022/05/01 08:22:07;;;;;;;;;37.67;32.67;;;;;;;;5097606;27;45207;-81
2022/05/01 08:24:33;;;;;;;;;38.67;33.33;;;;;;;;5084735;27;45688;-79
2022/05/01 08:27:05;;;;;;;;;36.00;31.67;;;;;;;;5077459;27;45457;-79
2022/05/01 08:29:31;;;;;;;;;45.33;34.67;;;;;;;;5076457;27;46127;-77
2022/05/01 08:31:56;;;;;;;;;36.00;33.00;;;;;;;;5075029;27;45473;-85
2022/05/01 08:34:22;;;;;;;;;41.33;34.00;;;;;;;;5077134;28;45228;-79
2022/05/01 08:36:47;;;;;;;;;42.33;35.00;;;;;;;;5077575;27;45405;-80
2022/05/01 08:39:12;;;;;;;;;37.00;32.00;;;;;;;;5076867;27;45484;-80
2022/05/01 08:41:37;;;;;;;;;34.33;31.33;;;;;;;;5076156;27;45380;-78
2022/05/01 08:44:05;;;;;;;;;32.33;29.67;;;;;;;;5076774;27;45383;-74
2022/05/01 08:46:30;;;;;;;;;32.00;28.67;;;;;;;;5076064;27;45409;-76
2022/05/01 08:49:03;;;;;;;;;40.00;31.33;;;;;;;;5075348;28;45554;-73
2022/05/01 08:51:39;;;;;;;;;36.33;29.67;;;;;;;;5079847;27;45331;-75
2022/05/01 08:54:05;;;;;;;;;37.67;29.00;;;;;;;;5079988;27;45513;-74
2022/05/01 08:56:31;;;;;;;;;33.67;29.33;;;;;;;;5077010;27;45422;-76
2022/05/01 08:58:56;;;;;;;;;32.33;32.00;;;;;;;;5079869;27;46442;-75
2022/05/01 09:01:21;;;;;;;;;33.67;29.00;;;;;;;;5094949;27;45447;-76
2022/05/01 09:03:46;;;;;;;;;34.67;30.67;;;;;;;;5079594;27;45574;-75
2022/05/01 09:06:13;;;;;;;;;36.00;29.33;;;;;;;;5080686;27;45482;-75
2022/05/01 09:08:39;;;;;;;;;34.00;30.33;;;;;;;;5079924;27;47409;-74
2022/05/01 09:13:48;;;;;;;;;32.00;28.67;;;;;;;;5079328;28;45441;-75
2022/05/01 09:16:13;;;;;;;;;29.00;25.67;;;;;;;;5079815;27;45387;-74
2022/05/01 09:18:43;;;;;;;;;30.33;25.33;;;;;;;;5079983;27;46625;-75
2022/05/01 09:21:08;;;;;;;;;32.00;25.00;;;;;;;;5079861;28;45580;-75
2022/05/01 09:23:37;;;;;;;;;27.33;26.00;;;;;;;;5079513;28;45363;-75
2022/05/01 09:26:02;;;;;;;;;27.67;22.33;;;;;;;;5079568;28;45546;-73
2022/05/01 09:28:28;;;;;;;;;21.33;21.33;;;;;;;;5080239;27;45944;-75
2022/05/01 09:30:53;;;;;;;;;26.67;23.33;;;;;;;;5079730;27;45765;-74
2022/05/01 09:33:21;;;;;;;;;24.33;22.33;;;;;;;;5079975;27;45387;-74
2022/05/01 09:35:47;;;;;;;;;22.00;20.67;;;;;;;;5079593;27;45465;-76
2022/05/01 09:38:23;;;;;;;;;23.33;23.33;;;;;;;;5080085;27;46027;-78
2022/05/01 09:40:50;;;;;;;;;25.00;18.33;;;;;;;;5085990;27;45454;-76
2022/05/01 09:43:36;;;;;;;;;15.33;15.00;;;;;;;;5099854;27;45361;-71
2022/05/01 09:46:19;;;;;;;;;27.00;25.67;;;;;;;;5017423;28;45536;-73
2022/05/01 09:48:59;;;;;;;;;21.33;20.33;;;;;;;;5005414;28;45354;-73
2022/05/01 09:51:25;;;;;;;;;28.67;24.00;;;;;;;;4997003;28;45480;-73
2022/05/01 09:53:50;;;;;;;;;22.67;22.00;;;;;;;;4997118;28;45291;-73
2022/05/01 09:56:15;;;;;;;;;23.33;20.33;;;;;;;;4997635;28;45517;-73
2022/05/01 09:58:42;;;;;;;;;23.00;20.33;;;;;;;;4996897;28;46755;-72
2022/05/01 10:01:11;;;;;;;;;24.33;20.33;;;;;;;;4996583;28;45414;-72
2022/05/01 10:03:39;;;;;;;;;25.67;23.33;;;;;;;;4996219;28;45871;-70
2022/05/01 10:06:06;;;;;;;;;20.00;20.00;;;;;;;;4996336;28;45454;-72
2022/05/01 10:08:35;;;;;;;;;25.33;23.33;;;;;;;;4995119;28;45481;-71
2022/05/01 10:11:00;;;;;;;;;30.67;24.67;;;;;;;;4995142;28;46037;-73
2022/05/01 10:13:27;;;;;;;;;22.67;18.00;;;;;;;;4996703;28;45899;-73
2022/05/01 10:15:53;;;;;;;;;19.00;17.33;;;;;;;;4995303;28;45504;-74
2022/05/01 10:18:18;;;;;;;;;23.00;18.00;;;;;;;;4995879;28;45899;-74
2022/05/01 10:20:44;;;;;;;;;25.00;22.00;;;;;;;;4995308;28;45536;-76
2022/05/01 10:23:16;;;;;;;;;19.67;17.33;;;;;;;;5033944;27;45512;-74
2022/05/01 10:25:59;;;;;;;;;22.33;21.00;;;;;;;;5077794;27;45347;-75
2022/05/01 10:28:43;;;;;;;;;19.33;19.33;;;;;;;;5077241;28;47497;-73
2022/05/01 10:34:23;;;;;;;;;25.00;21.33;;;;;;;;5067569;28;45513;-74
2022/05/01 10:36:57;;;;;;;;;19.33;16.33;;;;;;;;5015861;28;45709;-75
2022/05/01 10:39:23;;;;;;;;;22.33;20.67;;;;;;;;5015667;28;46281;-74
2022/05/01 10:41:49;;;;;;;;;20.33;19.33;;;;;;;;5015440;28;45469;-74
2022/05/01 10:44:30;;;;;;;;;15.67;15.67;;;;;;;;5015939;28;45425;-74
2022/05/01 10:47:04;;;;;;;;;19.33;18.00;;;;;;;;5016075;28;45628;-74
2022/05/01 10:49:36;;;;;;;;;19.00;17.33;;;;;;;;5013888;28;46130;-73
2022/05/01 10:52:15;;;;;;;;;16.00;16.00;;;;;;;;5014070;28;45547;-77
2022/05/01 10:54:40;;;;;;;;;14.00;13.00;;;;;;;;5014859;28;45531;-74
2022/05/01 10:57:10;;;;;;;;;15.00;14.00;;;;;;;;5012720;28;45449;-76
2022/05/01 10:59:39;;;;;;;;;12.00;12.00;;;;;;;;5014442;28;46175;-74
2022/05/01 11:02:05;;;;;;;;;12.00;12.00;;;;;;;;5015451;28;45417;-80
2022/05/01 11:04:38;;;;;;;;;15.00;13.00;;;;;;;;5014846;28;45477;-75
2022/05/01 11:07:04;;;;;;;;;15.00;12.67;;;;;;;;5015764;28;45315;-75
2022/05/01 11:09:32;;;;;;;;;19.67;16.00;;;;;;;;5014981;28;45893;-75
2022/05/01 11:11:58;;;;;;;;;16.33;15.00;;;;;;;;5012822;28;45833;-74
2022/05/01 11:14:33;;;;;;;;;17.00;13.33;;;;;;;;5058607;28;45430;-74
2022/05/01 11:16:58;;;;;;;;;21.67;15.33;;;;;;;;5077151;28;45565;-75
2022/05/01 11:19:23;;;;;;;;;12.00;11.00;;;;;;;;5077848;27;46142;-76
2022/05/01 11:21:49;;;;;;;;;13.67;11.00;;;;;;;;5077411;27;45454;-75
2022/05/01 11:24:15;;;;;;;;;14.33;12.00;;;;;;;;5078595;27;45502;-74
2022/05/01 11:27:11;;;;;;;;;11.67;9.33;;;;;;;;5078439;27;45355;-75
2022/05/01 11:29:37;;;;;;;;;16.33;13.33;;;;;;;;5077455;27;45456;-76
2022/05/01 11:32:32;;;;;;;;;13.67;13.67;;;;;;;;5077544;28;45691;-76
2022/05/01 11:34:57;;;;;;;;;14.00;14.00;;;;;;;;5073344;27;45254;-75
2022/05/01 11:37:23;;;;;;;;;15.33;14.33;;;;;;;;5077927;27;45397;-72
2022/05/01 11:39:51;;;;;;;;;13.67;13.00;;;;;;;;5078292;28;45550;-72
2022/05/01 11:42:23;;;;;;;;;13.00;13.00;;;;;;;;5077699;27;45354;-72
2022/05/01 11:44:48;;;;;;;;;17.00;15.00;;;;;;;;5078116;27;45471;-72
2022/05/01 11:47:14;;;;;;;;;16.33;14.33;;;;;;;;5077599;27;45324;-71
2022/05/01 11:49:40;;;;;;;;;15.33;14.67;;;;;;;;5077965;27;45543;-71
2022/05/01 11:52:06;;;;;;;;;13.00;13.00;;;;;;;;5076880;27;45390;-71
2022/05/01 11:54:31;;;;;;;;;17.67;15.33;;;;;;;;5092567;27;45844;-72
2022/05/01 12:02:27;;;;;;;;;14.33;13.33;;;;;;;;5057432;27;45187;-73
2022/05/01 12:05:01;;;;;;;;;15.00;14.33;;;;;;;;5076157;28;45465;-73
2022/05/01 12:07:26;;;;;;;;;20.00;15.33;;;;;;;;5077056;28;45459;-72
2022/05/01 12:09:52;;;;;;;;;15.67;14.67;;;;;;;;5077502;27;45279;-72
2022/05/01 12:12:19;;;;;;;;;17.33;15.33;;;;;;;;5077044;27;45469;-73
2022/05/01 12:14:45;;;;;;;;;15.33;15.33;;;;;;;;5077710;27;45330;-72
2022/05/01 12:17:13;;;;;;;;;21.67;16.33;;;;;;;;5077604;27;45376;-73
2022/05/01 12:19:40;;;;;;;;;18.00;15.67;;;;;;;;5076943;27;46305;-71
2022/05/01 12:22:06;;;;;;;;;15.67;13.00;;;;;;;;5075457;27;45394;-72
2022/05/01 12:24:32;;;;;;;;;15.00;15.00;;;;;;;;5055674;28;45415;-72
2022/05/01 12:26:58;;;;;;;;;18.00;13.00;;;;;;;;5057461;28;45369;-72
2022/05/01 12:29:23;;;;;;;;;13.00;11.33;;;;;;;;5074912;28;45786;-72
2022/05/01 12:32:04;;;;;;;;;13.67;13.67;;;;;;;;5075712;28;45273;-72
2022/05/01 12:34:30;;;;;;;;;14.67;11.67;;;;;;;;5080474;27;45460;-73
2022/05/01 12:36:57;;;;;;;;;16.67;14.67;;;;;;;;5074284;27;45374;-72
2022/05/01 12:39:22;;;;;;;;;14.00;14.00;;;;;;;;5067569;27;45435;-71
2022/05/01 12:45:03;;;;;;;;;18.67;14.67;;;;;;;;5075705;28;45408;-72
2022/05/01 12:47:33;;;;;;;;;16.67;13.33;;;;;;;;5075393;27;45507;-72
2022/05/01 12:49:58;;;;;;;;;18.00;14.33;;;;;;;;5074819;28;46089;-73
2022/05/01 12:52:34;;;;;;;;;19.00;17.33;;;;;;;;5075757;27;45418;-72
2022/05/01 12:55:14;;;;;;;;;16.67;14.33;;;;;;;;5070247;28;46131;-71
2022/05/01 12:57:40;;;;;;;;;16.00;16.00;;;;;;;;5071716;27;45472;-74
2022/05/01 13:00:06;;;;;;;;;17.00;16.00;;;;;;;;5068648;27;45390;-73
2022/05/01 13:02:31;;;;;;;;;18.67;16.00;;;;;;;;5072449;27;45415;-74
2022/05/01 13:05:03;;;;;;;;;17.67;16.00;;;;;;;;5070215;28;45376;-73
2022/05/01 13:07:34;;;;;;;;;15.00;13.67;;;;;;;;5060464;27;45475;-73
2022/05/01 13:09:59;;;;;;;;;19.33;17.67;;;;;;;;5072012;27;46167;-70
2022/05/01 13:12:31;;;;;;;;;15.00;13.67;;;;;;;;5068001;27;45406;-71
2022/05/01 13:15:04;;;;;;;;;14.67;12.33;;;;;;;;5057102;28;45496;-73
2022/05/01 13:17:30;;;;;;;;;14.33;12.33;;;;;;;;5065011;28;45535;-72
2022/05/01 13:19:55;;;;;;;;;12.67;11.00;;;;;;;;5058261;28;46701;-72
2022/05/01 13:22:21;;;;;;;;;15.00;14.67;;;;;;;;5081112;27;45244;-70
2022/05/01 13:24:52;;;;;;;;;14.00;13.67;;;;;;;;5090799;27;45540;-73
2022/05/01 13:27:17;;;;;;;;;17.33;13.33;;;;;;;;5096494;27;45481;-75
2022/05/01 13:29:43;;;;;;;;;18.33;14.67;;;;;;;;5090056;27;46666;-72
2022/05/01 13:32:09;;;;;;;;;15.00;14.00;;;;;;;;5055871;28;45446;-70
2022/05/01 13:34:35;;;;;;;;;15.00;13.33;;;;;;;;5058653;27;45479;-71
2022/05/01 13:37:00;;;;;;;;;12.67;12.67;;;;;;;;5085778;27;45615;-73
2022/05/01 13:44:54;;;;;;;;;14.67;13.00;;;;;;;;5078910;28;45447;-74
2022/05/01 13:47:21;;;;;;;;;12.33;11.33;;;;;;;;5079642;27;45396;-72
2022/05/01 13:49:47;;;;;;;;;14.00;13.67;;;;;;;;5067378;28;46327;-70
2022/05/01 13:52:12;;;;;;;;;16.33;12.33;;;;;;;;5062845;28;45350;-72
2022/05/01 13:54:37;;;;;;;;;11.67;10.67;;;;;;;;5064172;27;45490;-70
2022/05/01 13:57:03;;;;;;;;;13.67;11.67;;;;;;;;5089339;27;45617;-69
2022/05/01 13:59:28;;;;;;;;;16.00;12.67;;;;;;;;5078291;27;46642;-72
2022/05/01 14:01:54;;;;;;;;;12.00;9.33;;;;;;;;5077482;27;46192;-73
2022/05/01 14:04:20;;;;;;;;;15.00;13.33;;;;;;;;5084133;27;45457;-78
2022/05/01 14:06:45;;;;;;;;;15.33;12.33;;;;;;;;5072490;28;45417;-73
2022/05/01 14:09:17;;;;;;;;;11.33;10.00;;;;;;;;5078421;28;45323;-72
2022/05/01 14:11:43;;;;;;;;;11.33;10.67;;;;;;;;5082819;27;45552;-71
2022/05/01 14:14:08;;;;;;;;;12.00;12.00;;;;;;;;5075610;27;45470;-72
2022/05/01 14:16:34;;;;;;;;;19.00;15.67;;;;;;;;5066663;28;45651;-71
2022/05/01 14:18:59;;;;;;;;;22.67;18.00;;;;;;;;5083415;27;45441;-69
2022/05/01 14:21:25;;;;;;;;;16.33;14.67;;;;;;;;5098689;27;45319;-72
2022/05/01 14:23:50;;;;;;;;;21.67;21.00;;;;;;;;5080130;27;45379;-76
2022/05/01 14:26:16;;;;;;;;;14.33;12.67;;;;;;;;5066789;27;45281;-73
2022/05/01 14:28:42;;;;;;;;;13.33;12.33;;;;;;;;5058042;28;47178;-74
2022/05/01 14:31:10;;;;;;;;;17.33;13.67;;;;;;;;5058312;28;45645;-80
2022/05/01 14:33:42;;;;;;;;;22.33;17.33;;;;;;;;5058046;28;45359;-75
2022/05/01 14:36:09;;;;;;;;;15.67;15.67;;;;;;;;5058560;28;45458;-76
2022/05/01 14:38:37;;;;;;;;;21.00;13.67;;;;;;;;5067436;28;46340;-76
2022/05/01 14:41:03;;;;;;;;;15.00;14.00;;;;;;;;5077443;27;45399;-70
2022/05/01 14:43:29;;;;;;;;;13.00;13.00;;;;;;;;5070942;27;45543;-72
2022/05/01 14:45:59;;;;;;;;;12.33;11.00;;;;;;;;5059905;28;45442;-72